Royal, Arkansas
Current Conditions -  °F | °C
As of 3:53 AM on Sunday 23 Nov 2014 (Local Time) from KHOT Reporting Station
Light Rain Light Rain  
Wind Chill: 59°   Ceiling: 900
Heat Index: 59°   Visibility: 10mi
Dew Point: 56°   Wind: 9mph
Humidity: 90%   Direction: 130°SE
Pressure: 29.67"   Gusts: NA
Location:  34.51°N, 93.25°W
Report Text: KHOT 230953Z AUTO 13008KT 10SM -RA OVC009 15/13 A2967 RMK AO2 RAB44 SLP042 P0000 T01500133
Loading
Personal Weather Stations






























Interactive Weather Map New forecast layout! Learn more

10-Day Weather Forecast

Advertisements
Track Severe Weather on mobile